createdAt,value
2023-05-19T00:01:16.620Z,102846.78
2023-05-19T00:03:54.617Z,102842.34
2023-05-19T00:06:26.871Z,102843.28
2023-05-19T00:09:01.182Z,102845.13
2023-05-19T00:11:28.373Z,102843.41
2023-05-19T00:13:56.585Z,102844.34
2023-05-19T00:16:24.936Z,102839.16
2023-05-19T00:18:51.817Z,102835.75
2023-05-19T00:21:18.627Z,102834.97
2023-05-19T00:23:45.193Z,102828.75
2023-05-19T00:26:11.938Z,102823.47
2023-05-19T00:28:43.005Z,102823.53
2023-05-19T00:31:09.719Z,102824.56
2023-05-19T00:33:36.205Z,102825.56
2023-05-19T00:36:03.638Z,102819.34
2023-05-19T00:38:35.681Z,102817.63
2023-05-19T00:41:04.070Z,102816.91
2023-05-19T00:43:30.668Z,102822.25
2023-05-19T00:45:57.759Z,102822.41
2023-05-19T00:48:25.653Z,102820.69
2023-05-19T00:50:54.924Z,102825.31
2023-05-19T00:53:23.148Z,102826.38
2023-05-19T00:55:50.374Z,102831.88
2023-05-19T00:58:18.483Z,102831.03
2023-05-19T01:00:45.750Z,102828.53
2023-05-19T01:03:12.536Z,102827.63
2023-05-19T01:05:47.536Z,102828.56
2023-05-19T01:08:14.248Z,102827.78
2023-05-19T01:10:40.875Z,102828.84
2023-05-19T01:13:08.536Z,102832.44
2023-05-19T01:16:08.040Z,102834.31
2023-05-19T01:18:46.471Z,102832.59
2023-05-19T01:21:48.130Z,102828.22
2023-05-19T01:24:56.183Z,102834.44
2023-05-19T01:27:50.622Z,102835.38
2023-05-19T01:30:37.091Z,102828.31
2023-05-19T01:33:07.267Z,102823.06
2023-05-19T01:35:36.414Z,102824.16
2023-05-19T01:38:03.821Z,102816.16
2023-05-19T01:40:32.717Z,102810.00
2023-05-19T01:43:00.712Z,102812.69
2023-05-19T01:45:33.227Z,102811.94
2023-05-19T01:48:03.793Z,102819.09
2023-05-19T01:50:31.456Z,102821.91
2023-05-19T01:52:59.079Z,102821.00
2023-05-19T01:55:25.659Z,102820.16
2023-05-19T01:58:11.451Z,102817.72
2023-05-19T02:00:56.902Z,102801.78
2023-05-19T02:03:38.373Z,102799.19
2023-05-19T02:06:38.770Z,102804.66
2023-05-19T02:09:43.292Z,102812.88
2023-05-19T02:12:24.795Z,102805.72
2023-05-19T02:15:07.114Z,102811.13
2023-05-19T02:17:38.370Z,102810.19
2023-05-19T02:20:05.773Z,102810.25
2023-05-19T02:22:32.641Z,102802.34
2023-05-19T02:24:59.175Z,102806.03
2023-05-19T02:27:26.325Z,102803.44
2023-05-19T02:29:53.433Z,102799.16
2023-05-19T02:32:20.993Z,102805.53
2023-05-19T02:34:47.657Z,102799.31
2023-05-19T02:37:15.720Z,102791.31
2023-05-19T02:39:42.994Z,102791.31
2023-05-19T02:42:09.655Z,102795.88
2023-05-19T02:44:36.304Z,102795.97
2023-05-19T02:47:02.826Z,102792.44
2023-05-19T02:49:35.794Z,102781.81
2023-05-19T02:52:05.968Z,102786.44
2023-05-19T02:54:34.111Z,102778.38
2023-05-19T02:57:01.326Z,102781.16
2023-05-19T02:59:27.971Z,102780.22
2023-05-19T03:01:56.473Z,102784.72
2023-05-19T03:04:23.011Z,102773.25
2023-05-19T03:06:50.102Z,102780.50
2023-05-19T03:09:16.885Z,102776.91
2023-05-19T03:11:43.375Z,102775.97
2023-05-19T03:14:10.037Z,102769.81
2023-05-19T03:16:36.629Z,102769.91
2023-05-19T03:19:03.421Z,102773.53
2023-05-19T03:21:30.383Z,102770.00
2023-05-19T03:23:56.904Z,102773.63
2023-05-19T03:26:24.500Z,102770.09
2023-05-19T03:28:51.183Z,102777.31
2023-05-19T03:31:18.139Z,102774.66
2023-05-19T03:33:44.675Z,102767.56
2023-05-19T03:36:12.598Z,102770.34
2023-05-19T03:38:39.414Z,102771.28
2023-05-19T03:41:05.929Z,102776.69
2023-05-19T03:43:32.576Z,102766.91
2023-05-19T03:46:02.866Z,102761.59
2023-05-19T03:48:49.681Z,102765.09
2023-05-19T03:51:16.498Z,102769.59
2023-05-19T03:53:45.593Z,102767.75
2023-05-19T03:56:13.688Z,102765.91
2023-05-19T03:58:44.383Z,102766.75
2023-05-19T04:01:11.302Z,102771.19
2023-05-19T04:03:37.842Z,102772.03
2023-05-19T04:06:04.546Z,102771.00
2023-05-19T04:08:32.140Z,102770.94
2023-05-19T04:10:58.777Z,102772.69
2023-05-19T04:13:25.389Z,102764.66
2023-05-19T04:15:52.014Z,102777.91
2023-05-19T04:18:18.548Z,102771.56
2023-05-19T04:20:45.122Z,102772.34
2023-05-19T04:23:11.664Z,102774.84
2023-05-19T04:25:38.301Z,102775.50
2023-05-19T04:28:04.837Z,102774.34
2023-05-19T04:30:31.631Z,102777.78
2023-05-19T04:32:59.759Z,102781.22
2023-05-19T04:35:26.616Z,102782.91
2023-05-19T04:37:56.319Z,102774.75
2023-05-19T04:40:31.101Z,102772.84
2023-05-19T04:42:57.987Z,102779.00
2023-05-19T04:45:28.095Z,102781.38
2023-05-19T04:47:58.591Z,102778.53
2023-05-19T04:50:25.311Z,102784.44
2023-05-19T04:52:52.400Z,102783.25
2023-05-19T04:55:18.914Z,102784.75
2023-05-19T04:57:47.393Z,102789.06
2023-05-19T05:00:14.445Z,102780.69
2023-05-19T05:02:53.033Z,102780.44
2023-05-19T05:05:21.105Z,102777.50
2023-05-19T05:07:47.717Z,102779.16
2023-05-19T05:10:14.391Z,102784.50
2023-05-19T05:12:41.252Z,102780.84
2023-05-19T05:15:08.509Z,102786.88
2023-05-19T05:17:36.022Z,102785.47
2023-05-19T05:20:05.941Z,102790.59
2023-05-19T05:22:32.766Z,102784.97
2023-05-19T05:24:59.602Z,102783.84
2023-05-19T05:27:27.642Z,102784.25
2023-05-19T05:29:54.218Z,102789.22
2023-05-19T05:32:21.314Z,102784.31
2023-05-19T05:34:48.326Z,102785.97
2023-05-19T05:37:15.559Z,102780.41
2023-05-19T05:39:42.352Z,102786.44
2023-05-19T05:42:09.438Z,102782.50
2023-05-19T05:44:36.146Z,102779.06
2023-05-19T05:47:04.610Z,102772.03
2023-05-19T05:49:31.631Z,102760.44
2023-05-19T05:52:05.778Z,102763.09
2023-05-19T05:54:37.621Z,102766.91
2023-05-19T05:57:04.709Z,102764.97
2023-05-19T05:59:31.246Z,102767.31
2023-05-19T06:01:57.810Z,102749.47
2023-05-19T06:04:25.681Z,102758.66
2023-05-19T06:06:56.985Z,102769.00
2023-05-19T06:09:24.842Z,102752.50
2023-05-19T06:11:51.799Z,102754.78
2023-05-19T06:14:18.792Z,102743.97
2023-05-19T06:17:04.020Z,102761.16
2023-05-19T06:19:30.821Z,102757.06
2023-05-19T06:21:57.981Z,102757.28
2023-05-19T06:24:24.489Z,102752.75
2023-05-19T06:26:50.997Z,102760.53
2023-05-19T06:29:18.300Z,102758.69
2023-05-19T06:31:45.033Z,102741.94
2023-05-19T06:34:17.568Z,102750.72
2023-05-19T06:36:45.929Z,102746.19
2023-05-19T06:39:13.141Z,102737.47
2023-05-19T06:41:40.371Z,102746.09
2023-05-19T06:44:09.041Z,102740.59
2023-05-19T06:46:35.737Z,102741.50
2023-05-19T06:49:02.668Z,102736.88
2023-05-19T06:51:33.387Z,102744.00
2023-05-19T06:53:59.956Z,102735.50
2023-05-19T06:56:27.229Z,102739.72
2023-05-19T06:58:53.786Z,102743.06
2023-05-19T07:01:26.457Z,102740.50
2023-05-19T07:03:55.105Z,102740.41
2023-05-19T07:06:22.337Z,102751.00
2023-05-19T07:08:49.995Z,102744.72
2023-05-19T07:11:17.298Z,102739.19
2023-05-19T07:13:44.263Z,102742.19
2023-05-19T07:16:11.395Z,102739.50
2023-05-19T07:18:38.473Z,102746.44
2023-05-19T07:21:05.008Z,102744.38
2023-05-19T07:23:31.511Z,102740.44
2023-05-19T07:25:58.175Z,102741.94
2023-05-19T07:28:24.764Z,102738.63
2023-05-19T07:30:51.884Z,102741.13
2023-05-19T07:33:18.480Z,102741.69
2023-05-19T07:35:48.757Z,102739.91
2023-05-19T07:38:18.251Z,102745.16
2023-05-19T07:40:44.706Z,102745.75
2023-05-19T07:43:11.842Z,102746.63
2023-05-19T07:45:38.676Z,102746.59
2023-05-19T07:48:05.492Z,102742.25
2023-05-19T07:50:32.445Z,102748.84
2023-05-19T07:52:59.092Z,102748.50
2023-05-19T07:55:26.276Z,102735.31
2023-05-19T07:57:52.918Z,102732.28
2023-05-19T08:00:19.729Z,102725.78
2023-05-19T08:02:48.336Z,102728.47
2023-05-19T08:05:15.058Z,102731.34
2023-05-19T08:07:41.605Z,102721.06
2023-05-19T08:10:08.418Z,102719.06
2023-05-19T08:12:34.942Z,102723.34
2023-05-19T08:15:01.952Z,102712.75
2023-05-19T08:17:28.727Z,102712.91
2023-05-19T08:19:55.331Z,102709.13
2023-05-19T08:22:21.940Z,102711.28
2023-05-19T08:24:50.999Z,102705.44
2023-05-19T08:27:18.434Z,102696.94
2023-05-19T08:29:44.905Z,102692.28
2023-05-19T08:32:22.158Z,102693.22
2023-05-19T08:34:48.940Z,102694.47
2023-05-19T08:37:41.029Z,102691.81
2023-05-19T08:40:11.799Z,102690.91
2023-05-19T08:42:38.369Z,102692.44
2023-05-19T08:45:05.428Z,102695.44
2023-05-19T08:47:36.507Z,102686.53
2023-05-19T08:50:07.910Z,102685.16
2023-05-19T08:53:01.498Z,102683.63
2023-05-19T08:55:34.443Z,102675.78
2023-05-19T08:58:03.323Z,102675.06
2023-05-19T09:00:30.158Z,102670.69
2023-05-19T09:03:00.496Z,102673.84
2023-05-19T09:05:33.356Z,102658.72
2023-05-19T09:08:04.256Z,102676.16
2023-05-19T09:10:30.762Z,102667.88
2023-05-19T09:12:57.270Z,102662.53
2023-05-19T09:15:26.745Z,102665.44
2023-05-19T09:18:07.254Z,102673.00
2023-05-19T09:20:38.202Z,102676.00
2023-05-19T09:23:05.618Z,102670.13
2023-05-19T09:25:32.321Z,102660.34
2023-05-19T09:27:59.005Z,102667.06
2023-05-19T09:30:26.017Z,102666.66
2023-05-19T09:32:52.679Z,102659.63
2023-05-19T09:35:21.441Z,102656.28
2023-05-19T09:37:51.089Z,102660.13
2023-05-19T09:40:17.677Z,102659.00
2023-05-19T09:42:44.308Z,102649.31
2023-05-19T09:45:11.471Z,102646.63
2023-05-19T09:47:42.412Z,102649.53
2023-05-19T09:50:10.997Z,102661.22
2023-05-19T09:52:39.046Z,102652.97
2023-05-19T09:55:09.121Z,102649.34
2023-05-19T09:57:37.198Z,102660.19
2023-05-19T10:00:14.509Z,102657.09
2023-05-19T10:02:45.067Z,102661.91
2023-05-19T10:05:17.653Z,102662.69
2023-05-19T10:07:45.812Z,102658.19
2023-05-19T10:10:13.801Z,102652.00
2023-05-19T10:12:40.951Z,102645.94
2023-05-19T10:15:58.881Z,102635.78
2023-05-19T10:18:29.977Z,102637.53
2023-05-19T10:20:57.860Z,102637.66
2023-05-19T10:23:24.989Z,102631.06
2023-05-19T10:25:54.720Z,102630.50
2023-05-19T10:28:27.751Z,102628.84
2023-05-19T10:30:58.604Z,102624.38
2023-05-19T10:33:56.558Z,102621.41
2023-05-19T10:36:28.701Z,102614.63
2023-05-19T10:39:08.307Z,102620.34
2023-05-19T10:41:50.942Z,102622.06
2023-05-19T10:44:47.001Z,102607.78
2023-05-19T10:47:13.617Z,102610.03
2023-05-19T10:49:40.564Z,102618.78
2023-05-19T10:52:25.725Z,102608.34
2023-05-19T10:54:54.298Z,102613.38
2023-05-19T10:57:31.912Z,102615.84
2023-05-19T11:00:00.809Z,102607.19
2023-05-19T11:02:58.760Z,102607.28
2023-05-19T11:05:30.147Z,102606.09
2023-05-19T11:08:05.716Z,102606.84
2023-05-19T11:10:32.435Z,102601.16
2023-05-19T11:12:59.448Z,102590.88
2023-05-19T11:15:29.963Z,102592.81
2023-05-19T11:17:56.857Z,102602.44
2023-05-19T11:20:26.252Z,102598.25
2023-05-19T11:23:19.468Z,102596.13
2023-05-19T11:25:51.424Z,102596.63
2023-05-19T11:28:19.787Z,102590.63
2023-05-19T11:30:51.775Z,102601.38
2023-05-19T11:33:20.130Z,102587.94
2023-05-19T11:35:47.562Z,102590.84
2023-05-19T11:38:16.631Z,102584.19
2023-05-19T11:40:43.818Z,102581.97
2023-05-19T11:43:10.622Z,102585.81
2023-05-19T11:45:37.781Z,102583.63
2023-05-19T11:48:05.340Z,102579.75
2023-05-19T11:50:40.757Z,102571.28
2023-05-19T11:53:07.995Z,102573.63
2023-05-19T11:55:43.400Z,102558.78
2023-05-19T11:58:09.968Z,102553.97
2023-05-19T12:00:39.540Z,102570.09
2023-05-19T12:03:07.512Z,102574.97
2023-05-19T12:05:40.895Z,102575.47
2023-05-19T12:08:09.962Z,102569.28
2023-05-19T12:10:36.901Z,102586.44
2023-05-19T12:13:03.628Z,102569.31
2023-05-19T12:15:32.073Z,102572.69
2023-05-19T12:18:01.312Z,102573.53
2023-05-19T12:20:36.561Z,102577.84
2023-05-19T12:26:13.197Z,102571.31
2023-05-19T12:28:39.852Z,102563.50
2023-05-19T12:31:06.565Z,102566.31
2023-05-19T12:33:35.759Z,102557.38
2023-05-19T12:36:02.616Z,102563.41
2023-05-19T12:38:29.236Z,102550.06
2023-05-19T12:40:59.478Z,102546.78
2023-05-19T12:43:26.124Z,102552.25
2023-05-19T12:45:53.442Z,102548.63
2023-05-19T12:48:22.918Z,102542.13
2023-05-19T12:50:53.791Z,102541.41
2023-05-19T12:53:20.482Z,102536.03
2023-05-19T12:55:47.164Z,102532.91
2023-05-19T12:58:15.970Z,102527.59
2023-05-19T13:00:44.777Z,102532.84
2023-05-19T13:03:29.554Z,102534.44
2023-05-19T13:06:02.255Z,102531.25
2023-05-19T13:08:29.700Z,102534.03
2023-05-19T13:10:56.147Z,102532.00
2023-05-19T13:13:22.670Z,102526.75
2023-05-19T13:15:49.401Z,102535.09
2023-05-19T13:18:16.459Z,102527.72
2023-05-19T13:20:44.976Z,102533.25
2023-05-19T13:23:11.898Z,102532.09
2023-05-19T13:25:38.693Z,102532.72
2023-05-19T13:28:06.067Z,102522.03
2023-05-19T13:30:34.349Z,102521.16
2023-05-19T13:33:01.316Z,102522.31
2023-05-19T13:35:28.653Z,102515.66
2023-05-19T13:37:55.173Z,102505.09
2023-05-19T13:40:22.961Z,102513.94
2023-05-19T13:42:49.742Z,102505.97
2023-05-19T13:45:16.477Z,102506.13
2023-05-19T13:47:42.975Z,102499.03
2023-05-19T13:50:09.645Z,102501.34
2023-05-19T13:52:36.158Z,102493.84
2023-05-19T13:55:03.671Z,102493.09
2023-05-19T13:58:17.090Z,102496.22
2023-05-19T14:00:43.587Z,102494.78
2023-05-19T14:03:10.258Z,102494.50
2023-05-19T14:05:37.312Z,102494.63
2023-05-19T14:08:19.386Z,102486.75
2023-05-19T14:10:46.997Z,102479.63
2023-05-19T14:13:32.313Z,102480.41
2023-05-19T14:16:05.978Z,102478.63
2023-05-19T14:18:32.689Z,102491.66
2023-05-19T14:20:59.211Z,102492.38
2023-05-19T14:23:25.862Z,102486.19
2023-05-19T14:25:52.378Z,102482.13
2023-05-19T14:28:44.267Z,102471.56
2023-05-19T14:31:18.727Z,102474.22
2023-05-19T14:33:45.277Z,102476.41
2023-05-19T14:36:11.878Z,102472.97
2023-05-19T14:38:38.387Z,102472.84
2023-05-19T14:41:05.721Z,102467.78
2023-05-19T14:43:32.197Z,102470.22
2023-05-19T14:45:58.899Z,102471.22
2023-05-19T14:48:25.389Z,102465.88
2023-05-19T14:50:52.830Z,102457.50
2023-05-19T14:53:19.529Z,102452.31
2023-05-19T14:55:49.566Z,102452.72
2023-05-19T14:58:27.493Z,102448.00
2023-05-19T15:00:57.920Z,102456.84
2023-05-19T15:03:24.862Z,102450.72
2023-05-19T15:05:51.570Z,102447.91
2023-05-19T15:08:18.112Z,102452.50
2023-05-19T15:10:48.814Z,102450.72
2023-05-19T15:13:18.985Z,102450.81
2023-05-19T15:15:48.288Z,102453.16
2023-05-19T15:18:17.725Z,102449.06
2023-05-19T15:20:46.384Z,102432.25
2023-05-19T15:23:12.926Z,102432.09
2023-05-19T15:25:40.599Z,102439.59
2023-05-19T15:28:07.117Z,102435.72
2023-05-19T15:30:33.983Z,102433.91
2023-05-19T15:33:00.762Z,102435.16
2023-05-19T15:35:27.513Z,102445.66
2023-05-19T15:37:54.074Z,102438.88
2023-05-19T15:40:20.544Z,102446.63
2023-05-19T15:42:47.016Z,102431.00
2023-05-19T15:45:13.517Z,102433.44
2023-05-19T15:47:40.238Z,102438.56
2023-05-19T15:50:07.498Z,102438.16
2023-05-19T15:52:33.975Z,102439.31
2023-05-19T15:55:00.508Z,102432.03
2023-05-19T15:57:26.996Z,102429.06
2023-05-19T15:59:53.448Z,102425.25
2023-05-19T16:02:20.192Z,102421.19
2023-05-19T16:04:46.667Z,102423.22
2023-05-19T16:07:13.172Z,102425.72
2023-05-19T16:09:39.689Z,102423.00
2023-05-19T16:12:06.637Z,102423.38
2023-05-19T16:14:36.360Z,102420.06
2023-05-19T16:17:04.025Z,102416.47
2023-05-19T16:19:30.727Z,102410.84
2023-05-19T16:21:57.265Z,102403.91
2023-05-19T16:24:24.096Z,102409.09
2023-05-19T16:26:53.051Z,102403.19
2023-05-19T16:29:19.686Z,102402.47
2023-05-19T16:31:46.196Z,102407.69
2023-05-19T16:34:12.750Z,102400.88
2023-05-19T16:36:39.257Z,102405.94
2023-05-19T16:39:05.824Z,102407.22
2023-05-19T16:41:32.816Z,102407.97
2023-05-19T16:43:59.362Z,102405.16
2023-05-19T16:46:25.930Z,102406.25
2023-05-19T16:48:52.434Z,102405.66
2023-05-19T16:51:18.893Z,102410.25
2023-05-19T16:53:48.329Z,102405.66
2023-05-19T16:56:14.811Z,102408.91
2023-05-19T16:58:41.265Z,102410.94
2023-05-19T17:01:07.822Z,102402.88
2023-05-19T17:03:35.639Z,102402.47
2023-05-19T17:06:02.457Z,102401.78
2023-05-19T17:08:28.970Z,102407.19
2023-05-19T17:10:55.715Z,102411.22
2023-05-19T17:13:22.334Z,102404.50
2023-05-19T17:15:52.507Z,102409.63
2023-05-19T17:18:19.323Z,102407.13
2023-05-19T17:20:45.834Z,102405.03
2023-05-19T17:23:12.408Z,102411.94
2023-05-19T17:25:38.859Z,102407.31
2023-05-19T17:28:05.535Z,102408.25
2023-05-19T17:30:32.363Z,102407.81
2023-05-19T17:32:59.446Z,102408.41
2023-05-19T17:35:28.281Z,102403.50
2023-05-19T17:37:55.556Z,102400.00
2023-05-19T17:40:22.133Z,102407.84
2023-05-19T17:42:49.938Z,102401.25
2023-05-19T17:45:16.679Z,102419.75
2023-05-19T17:47:43.238Z,102419.69
2023-05-19T17:50:10.136Z,102417.69
2023-05-19T17:52:39.005Z,102416.69
2023-05-19T17:55:06.482Z,102414.66
2023-05-19T17:57:35.288Z,102421.16
2023-05-19T18:00:03.749Z,102412.63
2023-05-19T18:02:31.492Z,102417.31
2023-05-19T18:04:58.215Z,102421.94
2023-05-19T18:07:26.212Z,102420.88
2023-05-19T18:09:55.838Z,102424.44
2023-05-19T18:12:22.803Z,102424.59
2023-05-19T18:14:50.109Z,102425.06
2023-05-19T18:17:16.683Z,102434.75
2023-05-19T18:19:43.134Z,102426.34
2023-05-19T18:22:12.858Z,102431.22
2023-05-19T18:24:39.339Z,102435.56
2023-05-19T18:27:05.972Z,102438.00
2023-05-19T18:29:34.042Z,102435.19
2023-05-19T18:32:01.208Z,102436.16
2023-05-19T18:34:29.432Z,102434.94
2023-05-19T18:36:56.112Z,102437.81
2023-05-19T18:39:22.667Z,102445.38
2023-05-19T18:41:49.693Z,102441.28
2023-05-19T18:44:16.453Z,102452.44
2023-05-19T18:46:42.895Z,102444.72
2023-05-19T18:49:11.600Z,102456.41
2023-05-19T18:51:38.519Z,102455.13
2023-05-19T18:54:05.556Z,102455.00
2023-05-19T18:56:33.289Z,102449.88
2023-05-19T18:58:59.946Z,102454.06
2023-05-19T19:01:55.497Z,102461.44
2023-05-19T19:04:23.191Z,102459.09
2023-05-19T19:06:49.764Z,102465.78
2023-05-19T19:09:16.423Z,102461.03
2023-05-19T19:11:43.008Z,102469.16
2023-05-19T19:14:10.207Z,102468.41
2023-05-19T19:16:37.604Z,102466.00
2023-05-19T19:19:04.200Z,102467.59
2023-05-19T19:21:31.544Z,102467.09
2023-05-19T19:23:58.099Z,102468.41
2023-05-19T19:26:27.022Z,102472.56
2023-05-19T19:28:53.470Z,102473.28
2023-05-19T19:31:20.039Z,102478.06
2023-05-19T19:33:46.602Z,102481.22
2023-05-19T19:36:13.250Z,102480.66
2023-05-19T19:38:39.745Z,102485.47
2023-05-19T19:41:09.161Z,102485.41
2023-05-19T19:43:35.757Z,102494.03
2023-05-19T19:46:04.479Z,102493.81
2023-05-19T19:48:31.210Z,102503.41
2023-05-19T19:50:57.914Z,102507.00
2023-05-19T19:53:24.421Z,102513.78
2023-05-19T19:56:01.012Z,102506.47
2023-05-19T19:58:30.957Z,102508.94
2023-05-19T20:01:01.851Z,102515.16
2023-05-19T20:03:28.510Z,102518.41
2023-05-19T20:05:56.507Z,102517.97
2023-05-19T20:08:27.482Z,102518.19
2023-05-19T20:10:54.429Z,102525.13
2023-05-19T20:13:21.160Z,102523.03
2023-05-19T20:15:48.032Z,102524.63
2023-05-19T20:18:14.553Z,102520.84
2023-05-19T20:20:42.290Z,102526.94
2023-05-19T20:23:09.083Z,102529.97
2023-05-19T20:25:51.051Z,102530.78
2023-05-19T20:28:40.177Z,102540.44
2023-05-19T20:31:09.848Z,102534.91
2023-05-19T20:33:36.354Z,102539.41
2023-05-19T20:36:03.344Z,102537.94
2023-05-19T20:38:29.862Z,102535.22
2023-05-19T20:40:56.478Z,102548.13
2023-05-19T20:43:22.994Z,102543.00
2023-05-19T20:45:49.626Z,102549.72
2023-05-19T20:48:16.411Z,102542.75
2023-05-19T20:50:44.102Z,102552.94
2023-05-19T20:53:10.577Z,102550.34
2023-05-19T20:55:38.658Z,102545.97
2023-05-19T20:58:05.355Z,102555.19
2023-05-19T21:00:32.209Z,102555.31
2023-05-19T21:02:59.072Z,102558.50
2023-05-19T21:05:25.824Z,102548.59
2023-05-19T21:07:52.287Z,102544.22
2023-05-19T21:10:18.847Z,102556.38
2023-05-19T21:12:45.611Z,102561.13
2023-05-19T21:15:12.291Z,102563.84
2023-05-19T21:17:41.096Z,102560.25
2023-05-19T21:20:07.954Z,102566.16
2023-05-19T21:22:35.953Z,102561.00
2023-05-19T21:25:02.682Z,102568.47
2023-05-19T21:27:29.406Z,102564.78
2023-05-19T21:29:55.920Z,102576.03
2023-05-19T21:32:22.541Z,102573.78
2023-05-19T21:34:49.106Z,102582.03
2023-05-19T21:37:17.219Z,102574.75
2023-05-19T21:39:44.117Z,102580.38
2023-05-19T21:42:10.632Z,102583.38
2023-05-19T21:44:37.184Z,102586.09
2023-05-19T21:47:03.761Z,102585.69
2023-05-19T21:49:30.978Z,102592.28
2023-05-19T21:51:57.532Z,102585.13
2023-05-19T21:54:24.018Z,102586.16
2023-05-19T21:56:50.852Z,102589.75
2023-05-19T21:59:17.385Z,102590.91
2023-05-19T22:01:44.082Z,102588.38
2023-05-19T22:04:11.336Z,102593.19
2023-05-19T22:06:37.929Z,102581.56
2023-05-19T22:09:04.564Z,102585.25
2023-05-19T22:11:31.391Z,102587.38
2023-05-19T22:13:57.975Z,102582.94
2023-05-19T22:16:24.556Z,102583.19
2023-05-19T22:18:51.224Z,102591.69
2023-05-19T22:21:17.918Z,102588.28
2023-05-19T22:23:44.731Z,102583.16
2023-05-19T22:26:11.281Z,102579.84
2023-05-19T22:28:37.770Z,102582.88
2023-05-19T22:31:04.417Z,102592.97
2023-05-19T22:33:30.955Z,102584.91
2023-05-19T22:35:57.523Z,102587.63
2023-05-19T22:38:24.043Z,102592.44
2023-05-19T22:40:50.925Z,102588.16
2023-05-19T22:43:17.382Z,102589.50
2023-05-19T22:45:43.993Z,102589.59
2023-05-19T22:48:10.668Z,102589.75
2023-05-19T22:50:37.193Z,102588.19
2023-05-19T22:53:03.666Z,102591.31
2023-05-19T22:55:30.149Z,102595.06
2023-05-19T22:57:56.643Z,102592.53
2023-05-19T23:00:23.228Z,102589.22
2023-05-19T23:02:49.798Z,102587.63
2023-05-19T23:05:16.326Z,102593.22
2023-05-19T23:07:42.894Z,102584.38
2023-05-19T23:10:09.657Z,102594.69
2023-05-19T23:12:36.248Z,102593.13
2023-05-19T23:15:03.508Z,102591.03
2023-05-19T23:17:30.031Z,102586.72
2023-05-19T23:19:56.613Z,102591.59
2023-05-19T23:22:23.233Z,102592.66
2023-05-19T23:24:49.708Z,102583.91
2023-05-19T23:27:16.160Z,102587.75
2023-05-19T23:29:42.651Z,102590.63
2023-05-19T23:32:09.228Z,102596.91
2023-05-19T23:34:35.862Z,102592.44
2023-05-19T23:37:02.308Z,102581.16
2023-05-19T23:39:28.795Z,102582.97
2023-05-19T23:41:56.242Z,102589.63
2023-05-19T23:44:22.787Z,102582.69
2023-05-19T23:46:49.277Z,102588.28
2023-05-19T23:49:15.945Z,102588.28
2023-05-19T23:51:42.423Z,102579.38
2023-05-19T23:54:08.954Z,102586.69
2023-05-19T23:56:35.552Z,102583.25
2023-05-19T23:59:02.224Z,102585.22
